createdAt,value
2019-04-05T00:01:29.341Z,40.00
2019-04-05T00:03:04.896Z,40.70
2019-04-05T00:04:40.419Z,40.27
2019-04-05T00:06:15.978Z,38.15
2019-04-05T00:07:51.519Z,37.40
2019-04-05T00:09:27.128Z,36.60
2019-04-05T00:11:02.804Z,37.27
2019-04-05T00:12:38.341Z,40.70
2019-04-05T00:14:13.874Z,36.65
2019-04-05T00:15:49.452Z,34.07
2019-04-05T00:17:24.990Z,37.10
2019-04-05T00:19:00.527Z,40.13
2019-04-05T00:20:36.115Z,39.43
2019-04-05T00:22:11.656Z,38.42
2019-04-05T00:23:47.197Z,35.95
2019-04-05T00:25:22.717Z,39.93
2019-04-05T00:26:58.518Z,41.83
2019-04-05T00:28:34.056Z,40.83
2019-04-05T00:30:11.792Z,38.65
2019-04-05T00:31:47.353Z,39.80
2019-04-05T00:33:22.879Z,40.27
2019-04-05T00:34:58.809Z,38.47
2019-04-05T00:36:35.326Z,38.63
2019-04-05T00:38:10.883Z,38.00
2019-04-05T00:39:46.418Z,36.83
2019-04-05T00:41:21.961Z,36.57
2019-04-05T00:42:57.496Z,39.03
2019-04-05T00:44:33.044Z,36.57
2019-04-05T00:46:08.590Z,37.33
2019-04-05T00:47:44.122Z,37.63
2019-04-05T00:49:19.662Z,36.77
2019-04-05T00:50:55.185Z,35.47
2019-04-05T00:52:30.720Z,35.50
2019-04-05T00:54:07.346Z,36.87
2019-04-05T00:55:42.875Z,38.40
2019-04-05T00:57:18.444Z,36.17
2019-04-05T00:58:53.969Z,36.57
2019-04-05T01:00:29.584Z,38.30
2019-04-05T01:02:05.285Z,35.70
2019-04-05T01:03:40.847Z,34.90
2019-04-05T01:05:16.365Z,36.00
2019-04-05T01:06:51.906Z,35.35
2019-04-05T01:08:27.462Z,36.63
2019-04-05T01:10:03.022Z,35.80
2019-04-05T01:11:38.612Z,34.00
2019-04-05T01:13:14.150Z,33.13
2019-04-05T01:14:50.167Z,37.27
2019-04-05T01:16:25.778Z,37.43
2019-04-05T01:18:01.467Z,34.00
2019-04-05T01:19:38.555Z,38.03
2019-04-05T01:21:18.832Z,40.03
2019-04-05T01:22:55.087Z,36.97
2019-04-05T01:24:30.729Z,39.50
2019-04-05T01:26:06.718Z,40.80
2019-04-05T01:27:42.592Z,37.73
2019-04-05T01:29:18.681Z,39.13
2019-04-05T01:30:54.275Z,38.13
2019-04-05T01:32:29.826Z,38.27
2019-04-05T01:34:06.394Z,37.35
2019-04-05T01:35:41.944Z,39.53
2019-04-05T01:37:17.841Z,37.70
2019-04-05T01:38:53.379Z,39.33
2019-04-05T01:40:31.996Z,36.63
2019-04-05T01:42:08.391Z,36.40
2019-04-05T01:43:44.333Z,38.70
2019-04-05T01:45:20.527Z,39.08
2019-04-05T01:46:56.118Z,35.47
2019-04-05T01:48:31.653Z,40.40
2019-04-05T01:50:09.447Z,34.88
2019-04-05T01:51:45.094Z,34.50
2019-04-05T01:53:20.714Z,38.83
2019-04-05T01:54:56.275Z,40.57
2019-04-05T01:56:31.821Z,38.17
2019-04-05T01:58:08.156Z,38.10
2019-04-05T01:59:43.712Z,37.87
2019-04-05T02:01:19.319Z,37.35
2019-04-05T02:02:55.406Z,36.33
2019-04-05T02:04:30.974Z,36.60
2019-04-05T02:06:06.510Z,39.13
2019-04-05T02:07:42.327Z,36.93
2019-04-05T02:09:17.848Z,37.00
2019-04-05T02:10:53.556Z,38.77
2019-04-05T02:12:30.053Z,39.33
2019-04-05T02:14:05.665Z,39.37
2019-04-05T02:15:41.267Z,39.40
2019-04-05T02:17:16.838Z,37.83
2019-04-05T02:18:52.350Z,38.28
2019-04-05T02:20:27.955Z,38.83
2019-04-05T02:22:03.479Z,40.67
2019-04-05T02:23:39.734Z,41.00
2019-04-05T02:25:15.617Z,39.43
2019-04-05T02:26:51.533Z,39.03
2019-04-05T02:28:27.074Z,39.00
2019-04-05T02:30:02.764Z,41.50
2019-04-05T02:31:38.291Z,37.10
2019-04-05T02:33:14.082Z,38.00
2019-04-05T02:34:49.719Z,41.10
2019-04-05T02:36:25.281Z,42.55
2019-04-05T02:38:00.869Z,39.42
2019-04-05T02:39:36.470Z,41.97
2019-04-05T02:41:12.054Z,38.53
2019-04-05T02:42:50.683Z,43.00
2019-04-05T02:44:27.382Z,42.48
2019-04-05T02:46:03.777Z,41.00
2019-04-05T02:47:42.339Z,43.45
2019-04-05T02:49:18.996Z,43.55
2019-04-05T02:50:57.968Z,42.37
2019-04-05T02:52:34.665Z,43.10
2019-04-05T02:54:11.758Z,43.58
2019-04-05T02:55:48.352Z,45.57
2019-04-05T02:57:24.142Z,42.58
2019-04-05T02:59:00.913Z,41.53
2019-04-05T03:00:36.786Z,41.40
2019-04-05T03:02:12.379Z,44.10
2019-04-05T03:03:47.931Z,42.03
2019-04-05T03:05:24.138Z,43.17
2019-04-05T03:07:00.008Z,40.80
2019-04-05T03:08:35.614Z,42.40
2019-04-05T03:10:32.982Z,43.37
2019-04-05T03:12:08.831Z,43.10
2019-04-05T03:13:51.106Z,42.53
2019-04-05T03:15:26.730Z,43.73
2019-04-05T03:17:02.796Z,44.53
2019-04-05T03:18:43.015Z,41.93
2019-04-05T03:20:19.588Z,42.15
2019-04-05T03:21:59.831Z,43.55
2019-04-05T03:23:39.505Z,41.67
2019-04-05T03:25:16.162Z,42.73
2019-04-05T03:26:56.409Z,43.92
2019-04-05T03:28:34.758Z,42.67
2019-04-05T03:30:10.512Z,43.67
2019-04-05T03:31:46.277Z,41.60
2019-04-05T03:33:22.137Z,42.17
2019-04-05T03:34:57.737Z,44.25
2019-04-05T03:36:33.980Z,45.93
2019-04-05T03:38:09.515Z,46.43
2019-04-05T03:39:45.548Z,43.17
2019-04-05T03:41:21.323Z,43.08
2019-04-05T03:42:56.938Z,44.58
2019-04-05T03:44:32.731Z,43.27
2019-04-05T03:46:08.931Z,42.00
2019-04-05T03:47:44.540Z,43.80
2019-04-05T03:49:21.245Z,43.63
2019-04-05T03:50:57.257Z,43.80
2019-04-05T03:52:32.891Z,43.73
2019-04-05T03:54:08.603Z,43.90
2019-04-05T03:55:44.116Z,43.73
2019-04-05T03:57:19.717Z,43.13
2019-04-05T03:58:55.450Z,39.27
2019-04-05T04:00:31.275Z,41.97
2019-04-05T04:02:06.882Z,42.13
2019-04-05T04:03:43.823Z,41.83
2019-04-05T04:05:19.734Z,43.98
2019-04-05T04:06:55.685Z,41.02
2019-04-05T04:08:31.560Z,41.05
2019-04-05T04:10:10.947Z,45.07
2019-04-05T04:11:46.628Z,41.97
2019-04-05T04:13:22.436Z,43.15
2019-04-05T04:14:59.699Z,40.83
2019-04-05T04:16:35.288Z,41.37
2019-04-05T04:18:10.814Z,42.67
2019-04-05T04:19:46.529Z,39.63
2019-04-05T04:21:50.945Z,44.10
2019-04-05T04:23:30.473Z,42.62
2019-04-05T04:25:06.169Z,39.53
2019-04-05T04:26:42.711Z,42.00
2019-04-05T04:28:18.333Z,42.50
2019-04-05T04:29:53.890Z,42.53
2019-04-05T04:31:29.453Z,39.37
2019-04-05T04:33:06.628Z,40.97
2019-04-05T04:34:42.331Z,40.27
2019-04-05T04:36:17.901Z,39.20
2019-04-05T04:37:53.571Z,40.60
2019-04-05T04:39:29.424Z,40.97
2019-04-05T04:41:05.060Z,38.60
2019-04-05T04:42:40.659Z,41.98
2019-04-05T04:44:16.475Z,40.43
2019-04-05T04:45:52.270Z,40.13
2019-04-05T04:47:28.416Z,39.95
2019-04-05T04:49:04.690Z,39.53
2019-04-05T04:50:40.559Z,40.30
2019-04-05T04:52:16.541Z,40.70
2019-04-05T04:53:52.532Z,39.73
2019-04-05T04:55:28.349Z,39.27
2019-04-05T04:57:04.423Z,39.67
2019-04-05T04:58:40.080Z,41.13
2019-04-05T05:00:16.067Z,41.47
2019-04-05T05:01:51.668Z,40.03
2019-04-05T05:03:40.721Z,40.13
2019-04-05T05:05:25.906Z,40.92
2019-04-05T05:07:09.635Z,39.70
2019-04-05T05:08:52.757Z,41.60
2019-04-05T05:10:28.735Z,40.50
2019-04-05T05:12:05.126Z,37.98
2019-04-05T05:13:40.992Z,39.60
2019-04-05T05:15:18.348Z,41.70
2019-04-05T05:16:54.146Z,41.37
2019-04-05T05:18:29.919Z,42.58
2019-04-05T05:20:07.657Z,39.17
2019-04-05T05:21:43.281Z,40.33
2019-04-05T05:23:20.512Z,39.42
2019-04-05T05:24:56.324Z,41.18
2019-04-05T05:26:31.870Z,39.75
2019-04-05T05:28:08.735Z,39.13
2019-04-05T05:29:44.468Z,39.10
2019-04-05T05:31:20.773Z,39.45
2019-04-05T05:32:56.376Z,40.70
2019-04-05T05:34:32.001Z,38.53
2019-04-05T05:36:10.388Z,39.27
2019-04-05T05:37:44.986Z,39.00
2019-04-05T05:39:20.873Z,40.57
2019-04-05T05:40:56.422Z,40.10
2019-04-05T05:42:32.055Z,40.20
2019-04-05T05:44:07.598Z,40.20
2019-04-05T05:45:43.137Z,43.43
2019-04-05T05:47:18.679Z,40.90
2019-04-05T05:48:54.242Z,39.50
2019-04-05T05:50:29.759Z,43.38
2019-04-05T05:52:05.328Z,40.13
2019-04-05T05:53:40.922Z,37.13
2019-04-05T05:55:16.518Z,43.27
2019-04-05T05:56:53.312Z,39.93
2019-04-05T05:58:28.869Z,40.03
2019-04-05T06:00:07.985Z,40.40
2019-04-05T06:01:43.536Z,38.47
2019-04-05T06:03:19.352Z,38.30
2019-04-05T06:04:54.934Z,39.13
2019-04-05T06:06:30.491Z,36.50
2019-04-05T06:08:06.034Z,39.45
2019-04-05T06:09:41.575Z,38.67
2019-04-05T06:11:17.135Z,41.60
2019-04-05T06:12:52.669Z,39.97
2019-04-05T06:14:28.210Z,38.90
2019-04-05T06:16:03.747Z,39.80
2019-04-05T06:17:39.287Z,38.60
2019-04-05T06:19:14.913Z,38.57
2019-04-05T06:20:51.191Z,40.30
2019-04-05T06:22:26.771Z,41.90
2019-04-05T06:24:05.156Z,39.73
2019-04-05T06:25:39.576Z,37.03
2019-04-05T06:27:15.172Z,35.67
2019-04-05T06:28:51.572Z,39.80
2019-04-05T06:30:28.740Z,38.88
2019-04-05T06:32:04.594Z,36.53
2019-04-05T06:33:40.122Z,36.60
2019-04-05T06:35:15.731Z,38.50
2019-04-05T06:36:51.851Z,38.70
2019-04-05T06:38:27.436Z,37.88
2019-04-05T06:40:03.038Z,41.10
2019-04-05T06:41:38.566Z,38.95
2019-04-05T06:43:14.090Z,41.30
2019-04-05T06:44:49.617Z,42.27
2019-04-05T06:46:25.497Z,41.53
2019-04-05T06:48:01.016Z,41.73
2019-04-05T06:49:36.553Z,40.00
2019-04-05T06:51:12.094Z,37.73
2019-04-05T06:52:47.632Z,39.50
2019-04-05T06:54:23.173Z,37.50
2019-04-05T06:55:59.957Z,37.93
2019-04-05T06:57:35.995Z,36.35
2019-04-05T06:59:12.509Z,36.43
2019-04-05T07:00:56.864Z,37.03
2019-04-05T07:02:25.619Z,34.13
2019-04-05T07:04:01.158Z,36.53
2019-04-05T07:05:36.711Z,37.17
2019-04-05T07:07:12.234Z,36.83
2019-04-05T07:08:53.528Z,35.50
2019-04-05T07:10:25.022Z,34.53
2019-04-05T07:12:00.566Z,35.65
2019-04-05T07:13:36.104Z,34.43
2019-04-05T07:15:11.795Z,34.15
2019-04-05T07:16:48.106Z,35.33
2019-04-05T07:18:33.974Z,34.03
2019-04-05T07:20:01.433Z,33.05
2019-04-05T07:21:36.980Z,34.23
2019-04-05T07:23:12.521Z,35.63
2019-04-05T07:24:49.567Z,33.80
2019-04-05T07:26:25.199Z,33.63
2019-04-05T07:28:00.765Z,34.60
2019-04-05T07:29:36.755Z,35.25
2019-04-05T07:31:12.290Z,33.27
2019-04-05T07:32:47.851Z,38.30
2019-04-05T07:34:24.637Z,37.23
2019-04-05T07:36:03.357Z,35.70
2019-04-05T07:37:37.800Z,33.33
2019-04-05T07:39:13.308Z,37.57
2019-04-05T07:40:48.891Z,38.57
2019-04-05T07:42:25.111Z,37.05
2019-04-05T07:44:00.637Z,36.20
2019-04-05T07:45:36.163Z,37.83
2019-04-05T07:47:11.707Z,40.70
2019-04-05T07:48:47.252Z,36.40
2019-04-05T07:50:23.858Z,37.30
2019-04-05T07:51:59.429Z,39.13
2019-04-05T07:53:34.971Z,39.05
2019-04-05T07:55:11.231Z,39.70
2019-04-05T07:56:46.986Z,42.37
2019-04-05T07:58:22.547Z,36.70
2019-04-05T07:59:58.087Z,40.07
2019-04-05T08:01:33.628Z,36.77
2019-04-05T08:03:09.254Z,36.20
2019-04-05T08:04:44.887Z,38.23
2019-04-05T08:06:20.476Z,38.60
2019-04-05T08:07:56.817Z,37.50
2019-04-05T08:09:33.259Z,38.00
2019-04-05T08:11:08.877Z,38.95
2019-04-05T08:12:44.660Z,37.70
2019-04-05T08:14:21.432Z,37.53
2019-04-05T08:15:56.970Z,39.10
2019-04-05T08:17:32.602Z,39.80
2019-04-05T08:19:08.209Z,41.18
2019-04-05T08:20:43.736Z,41.03
2019-04-05T08:22:19.321Z,41.37
2019-04-05T08:23:54.881Z,40.40
2019-04-05T08:25:30.437Z,36.83
2019-04-05T08:27:06.047Z,41.88
2019-04-05T08:28:41.585Z,40.43
2019-04-05T08:30:17.198Z,40.35
2019-04-05T08:31:53.142Z,39.75
2019-04-05T08:33:28.688Z,43.05
2019-04-05T08:35:05.955Z,41.55
2019-04-05T08:36:42.453Z,38.60
2019-04-05T08:38:18.005Z,37.95
2019-04-05T08:39:53.568Z,37.00
2019-04-05T08:41:29.090Z,37.45
2019-04-05T08:43:04.705Z,38.25
2019-04-05T08:44:40.243Z,39.70
2019-04-05T08:46:15.857Z,38.83
2019-04-05T08:47:51.417Z,36.10
2019-04-05T08:49:27.208Z,34.27
2019-04-05T08:51:02.924Z,36.20
2019-04-05T08:52:38.753Z,36.98
2019-04-05T08:54:14.290Z,36.90
2019-04-05T08:55:49.831Z,34.18
2019-04-05T08:57:25.383Z,34.73
2019-04-05T08:59:00.918Z,33.73
2019-04-05T09:00:36.455Z,32.90
2019-04-05T09:02:11.995Z,33.78
2019-04-05T09:03:47.598Z,34.05
2019-04-05T09:05:23.079Z,32.63
2019-04-05T09:06:58.597Z,33.60
2019-04-05T09:08:34.154Z,32.80
2019-04-05T09:10:09.822Z,33.75
2019-04-05T09:11:45.352Z,35.37
2019-04-05T09:13:20.898Z,31.85
2019-04-05T09:14:56.433Z,35.20
2019-04-05T09:16:32.943Z,33.70
2019-04-05T09:18:08.484Z,34.43
2019-04-05T09:19:44.027Z,32.65
2019-04-05T09:21:20.619Z,33.18
2019-04-05T09:22:56.170Z,34.90
2019-04-05T09:24:31.697Z,34.78
2019-04-05T09:26:07.237Z,34.17
2019-04-05T09:27:42.776Z,34.75
2019-04-05T09:29:18.299Z,32.67
2019-04-05T09:30:53.839Z,32.25
2019-04-05T09:32:29.392Z,34.10
2019-04-05T09:34:06.190Z,33.32
2019-04-05T09:35:41.787Z,32.07
2019-04-05T09:37:18.394Z,32.07
2019-04-05T09:38:53.907Z,31.85
2019-04-05T09:40:29.431Z,31.40
2019-04-05T09:42:05.255Z,31.70
2019-04-05T09:43:40.793Z,30.43
2019-04-05T09:45:16.335Z,33.15
2019-04-05T09:46:51.888Z,31.52
2019-04-05T09:48:28.521Z,33.00
2019-04-05T09:50:07.358Z,32.03
2019-04-05T09:51:42.895Z,33.10
2019-04-05T09:53:18.436Z,31.05
2019-04-05T09:54:53.978Z,31.10
2019-04-05T09:56:29.827Z,31.50
2019-04-05T09:58:05.446Z,30.80
2019-04-05T09:59:41.004Z,31.90
2019-04-05T10:01:16.573Z,29.80
2019-04-05T10:02:52.114Z,35.15
2019-04-05T10:04:27.660Z,33.17
2019-04-05T10:06:03.935Z,33.74
2019-04-05T10:07:53.888Z,33.23
2019-04-05T10:09:16.956Z,31.95
2019-04-05T10:10:52.486Z,31.27
2019-04-05T10:12:28.016Z,30.85
2019-04-05T10:14:04.074Z,30.86
2019-04-05T10:15:39.609Z,30.55
2019-04-05T10:17:15.134Z,31.10
2019-04-05T10:18:51.632Z,29.45
2019-04-05T10:20:27.216Z,32.00
2019-04-05T10:22:03.994Z,31.33
2019-04-05T10:23:39.566Z,32.17
2019-04-05T10:25:16.952Z,33.05
2019-04-05T10:26:52.496Z,31.97
2019-04-05T10:28:28.339Z,30.57
2019-04-05T10:30:10.176Z,29.52
2019-04-05T10:31:45.730Z,29.35
2019-04-05T10:33:21.277Z,32.17
2019-04-05T10:34:56.827Z,33.48
2019-04-05T10:36:32.368Z,33.63
2019-04-05T10:38:07.933Z,33.48
2019-04-05T10:39:43.475Z,32.00
2019-04-05T10:41:19.006Z,33.15
2019-04-05T10:42:54.546Z,32.80
2019-04-05T10:44:30.101Z,33.15
2019-04-05T10:46:07.738Z,32.98
2019-04-05T10:47:43.265Z,34.77
2019-04-05T10:49:18.821Z,34.63
2019-04-05T10:50:55.318Z,35.40
2019-04-05T10:52:30.853Z,35.92
2019-04-05T10:54:09.436Z,35.68
2019-04-05T10:55:44.602Z,36.58
2019-04-05T10:57:20.455Z,39.20
2019-04-05T10:58:55.991Z,36.58
2019-04-05T11:00:31.518Z,36.10
2019-04-05T11:02:07.300Z,35.73
2019-04-05T11:03:42.847Z,37.97
2019-04-05T11:05:18.436Z,37.00
2019-04-05T11:06:53.973Z,38.95
2019-04-05T11:08:29.501Z,38.95
2019-04-05T11:10:07.923Z,37.63
2019-04-05T11:11:43.471Z,38.08
2019-04-05T11:13:19.017Z,36.07
2019-04-05T11:14:54.561Z,38.73
2019-04-05T11:16:30.113Z,36.73
2019-04-05T11:18:06.948Z,38.38
2019-04-05T11:19:42.488Z,37.80
2019-04-05T11:21:18.414Z,38.15
2019-04-05T11:22:54.456Z,36.45
2019-04-05T11:24:30.017Z,38.70
2019-04-05T11:26:07.167Z,36.73
2019-04-05T11:27:42.690Z,37.70
2019-04-05T11:29:18.338Z,35.25
2019-04-05T11:30:53.840Z,35.92
2019-04-05T11:32:29.429Z,38.48
2019-04-05T11:34:05.008Z,34.48
2019-04-05T11:35:40.963Z,36.65
2019-04-05T11:37:19.036Z,35.70
2019-04-05T11:38:54.273Z,34.27
2019-04-05T11:40:30.061Z,32.30
2019-04-05T11:42:06.972Z,34.20
2019-04-05T11:43:44.906Z,36.05
2019-04-05T11:45:20.713Z,34.97
2019-04-05T11:46:56.802Z,36.03
2019-04-05T11:48:33.231Z,36.42
2019-04-05T11:50:13.919Z,37.40
2019-04-05T11:51:49.632Z,34.40
2019-04-05T11:53:25.167Z,35.55
2019-04-05T11:55:00.692Z,35.65
2019-04-05T11:56:36.232Z,36.08
2019-04-05T11:58:11.839Z,34.55
2019-04-05T11:59:48.795Z,31.02
2019-04-05T12:01:35.114Z,32.13
2019-04-05T12:03:15.143Z,35.68
2019-04-05T12:04:50.764Z,35.35
2019-04-05T12:06:26.567Z,32.77
2019-04-05T12:08:02.220Z,32.50
2019-04-05T12:09:38.665Z,34.00
2019-04-05T12:11:14.209Z,35.92
2019-04-05T12:12:49.744Z,33.28
2019-04-05T12:14:30.479Z,33.58
2019-04-05T12:16:05.623Z,31.42
2019-04-05T12:17:39.770Z,31.77
2019-04-05T12:19:15.322Z,33.92
2019-04-05T12:20:59.656Z,35.35
2019-04-05T12:22:28.553Z,35.63
2019-04-05T12:24:04.093Z,33.83
2019-04-05T12:25:40.595Z,32.90
2019-04-05T12:27:16.116Z,32.03
2019-04-05T12:28:51.674Z,33.77
2019-04-05T12:30:27.956Z,30.77
2019-04-05T12:32:03.525Z,29.07
2019-04-05T12:33:39.037Z,30.00
2019-04-05T12:35:14.640Z,28.87
2019-04-05T12:36:50.583Z,28.53
2019-04-05T12:38:31.567Z,29.90
2019-04-05T12:40:14.816Z,28.65
2019-04-05T12:41:49.962Z,29.42
2019-04-05T12:43:25.516Z,28.15
2019-04-05T12:45:01.072Z,26.48
2019-04-05T12:46:37.586Z,28.12
2019-04-05T12:48:13.735Z,25.70
2019-04-05T12:49:50.714Z,30.53
2019-04-05T12:51:26.247Z,33.65
2019-04-05T12:53:01.809Z,33.30
2019-04-05T12:54:37.348Z,35.13
2019-04-05T12:56:12.864Z,34.33
2019-04-05T12:57:48.637Z,33.63
2019-04-05T12:59:25.529Z,35.70
2019-04-05T13:01:01.633Z,32.85
2019-04-05T13:02:37.160Z,32.55
2019-04-05T13:04:12.715Z,37.03
2019-04-05T13:05:51.176Z,32.40
2019-04-05T13:07:25.542Z,33.37
2019-04-05T13:09:01.097Z,34.25
2019-04-05T13:10:38.287Z,34.25
2019-04-05T13:12:13.899Z,33.70
2019-04-05T13:13:50.524Z,35.80
2019-04-05T13:15:26.045Z,36.90
2019-04-05T13:17:02.567Z,33.83
2019-04-05T13:18:38.316Z,32.93
2019-04-05T13:20:14.667Z,33.60
2019-04-05T13:21:50.169Z,31.43
2019-04-05T13:23:25.988Z,34.47
2019-04-05T13:25:01.522Z,37.48
2019-04-05T13:26:37.169Z,35.25
2019-04-05T13:28:18.093Z,33.42
2019-04-05T13:29:50.969Z,35.40
2019-04-05T13:31:26.508Z,33.90
2019-04-05T13:33:02.122Z,37.08
2019-04-05T13:34:37.653Z,34.88
2019-04-05T13:36:13.823Z,34.92
2019-04-05T13:37:49.383Z,33.27
2019-04-05T13:39:24.904Z,32.48
2019-04-05T13:41:01.593Z,33.02
2019-04-05T13:42:37.699Z,31.87
2019-04-05T13:44:13.234Z,33.20
2019-04-05T13:45:48.780Z,32.13
2019-04-05T13:47:24.588Z,32.67
2019-04-05T13:49:00.127Z,31.12
2019-04-05T13:50:35.681Z,29.72
2019-04-05T13:52:12.093Z,28.60
2019-04-05T13:53:48.231Z,30.90
2019-04-05T13:55:23.792Z,31.33
2019-04-05T13:56:59.364Z,29.80
2019-04-05T13:58:34.902Z,31.37
2019-04-05T14:00:12.210Z,28.67
2019-04-05T14:01:50.764Z,29.60
2019-04-05T14:03:25.014Z,29.77
2019-04-05T14:05:00.553Z,28.43
2019-04-05T14:06:36.095Z,30.43
2019-04-05T14:08:11.665Z,30.15
2019-04-05T14:09:47.188Z,28.00
2019-04-05T14:11:25.642Z,28.40
2019-04-05T14:12:59.960Z,27.67
2019-04-05T14:14:35.485Z,28.42
2019-04-05T14:16:12.511Z,30.82
2019-04-05T14:17:49.397Z,30.70
2019-04-05T14:19:25.269Z,29.97
2019-04-05T14:21:00.835Z,29.60
2019-04-05T14:22:37.973Z,28.85
2019-04-05T14:24:13.511Z,28.05
2019-04-05T14:25:49.028Z,27.85
2019-04-05T14:27:24.545Z,26.50
2019-04-05T14:29:03.483Z,27.27
2019-04-05T14:30:38.343Z,29.15
2019-04-05T14:32:21.313Z,27.02
2019-04-05T14:33:54.192Z,26.60
2019-04-05T14:35:28.353Z,26.68
2019-04-05T14:37:03.876Z,25.23
2019-04-05T14:38:39.429Z,26.42
2019-04-05T14:40:15.470Z,25.92
2019-04-05T14:41:51.002Z,26.60
2019-04-05T14:43:26.545Z,27.05
2019-04-05T14:45:02.082Z,27.32
2019-04-05T14:46:38.515Z,25.37
2019-04-05T14:48:15.108Z,24.12
2019-04-05T14:49:50.766Z,22.95
2019-04-05T14:51:26.602Z,24.72
2019-04-05T14:53:03.985Z,25.02
2019-04-05T14:54:39.528Z,23.92
2019-04-05T14:56:15.050Z,22.07
2019-04-05T14:57:50.633Z,21.52
2019-04-05T14:59:26.158Z,22.50
2019-04-05T15:01:01.683Z,24.02
2019-04-05T15:02:37.289Z,22.87
2019-04-05T15:04:12.851Z,23.35
2019-04-05T15:05:49.034Z,24.15
2019-04-05T15:07:24.609Z,21.30
2019-04-05T15:09:02.073Z,21.52
2019-04-05T15:10:38.854Z,21.80
2019-04-05T15:12:14.631Z,21.42
2019-04-05T15:13:50.170Z,22.73
2019-04-05T15:15:25.714Z,23.18
2019-04-05T15:17:01.269Z,23.25
2019-04-05T15:18:36.795Z,22.22
2019-04-05T15:20:13.457Z,22.40
2019-04-05T15:21:49.578Z,23.18
2019-04-05T15:23:25.119Z,22.60
2019-04-05T15:25:01.616Z,23.18
2019-04-05T15:26:37.223Z,23.30
2019-04-05T15:28:12.813Z,23.25
2019-04-05T15:29:48.381Z,22.07
2019-04-05T15:31:26.556Z,22.22
2019-04-05T15:33:02.800Z,22.17
2019-04-05T15:34:38.338Z,23.67
2019-04-05T15:36:13.879Z,22.20
2019-04-05T15:37:50.671Z,22.05
2019-04-05T15:39:26.197Z,21.02
2019-04-05T15:41:01.734Z,22.30
2019-04-05T15:42:37.349Z,22.47
2019-04-05T15:44:12.924Z,21.15
2019-04-05T15:45:48.433Z,21.42
2019-04-05T15:47:24.278Z,22.27
2019-04-05T15:48:59.826Z,22.17
2019-04-05T15:50:35.518Z,21.37
2019-04-05T15:52:18.747Z,21.00
2019-04-05T15:53:48.509Z,22.17
2019-04-05T15:55:24.059Z,20.25
2019-04-05T15:57:01.487Z,21.90
2019-04-05T15:58:36.820Z,20.00
2019-04-05T16:00:14.616Z,21.27
2019-04-05T16:01:50.314Z,21.30
2019-04-05T16:03:26.158Z,20.86
2019-04-05T16:05:01.967Z,19.98
2019-04-05T16:06:39.055Z,19.25
2019-04-05T16:08:17.779Z,19.37
2019-04-05T16:09:53.340Z,19.35
2019-04-05T16:11:28.929Z,20.17
2019-04-05T16:13:04.457Z,19.48
2019-04-05T16:14:40.313Z,18.97
2019-04-05T16:16:15.854Z,20.50
2019-04-05T16:17:52.535Z,19.92
2019-04-05T16:19:28.080Z,20.12
2019-04-05T16:21:03.639Z,20.55
2019-04-05T16:22:39.250Z,21.50
2019-04-05T16:24:14.788Z,21.05
2019-04-05T16:25:50.328Z,19.50
2019-04-05T16:27:26.824Z,19.73
2019-04-05T16:29:02.395Z,20.95
2019-04-05T16:30:39.718Z,19.85
2019-04-05T16:32:15.137Z,19.95
2019-04-05T16:33:50.752Z,17.90
2019-04-05T16:35:26.296Z,19.87
2019-04-05T16:37:01.849Z,22.82
2019-04-05T16:38:37.368Z,23.32
2019-04-05T16:40:13.885Z,22.27
2019-04-05T16:41:49.437Z,24.18
2019-04-05T16:43:25.048Z,23.27
2019-04-05T16:45:00.601Z,23.25
2019-04-05T16:46:36.148Z,25.15
2019-04-05T16:48:11.713Z,25.50
2019-04-05T16:49:47.256Z,26.73
2019-04-05T16:51:25.850Z,26.55
2019-04-05T16:53:01.405Z,25.92
2019-04-05T16:54:38.516Z,26.27
2019-04-05T16:56:14.074Z,26.93
2019-04-05T16:57:49.606Z,25.48
2019-04-05T16:59:25.157Z,25.15
2019-04-05T17:01:00.701Z,24.70
2019-04-05T17:02:37.386Z,23.42
2019-04-05T17:04:12.920Z,23.30
2019-04-05T17:05:48.457Z,23.50
2019-04-05T17:07:25.035Z,23.18
2019-04-05T17:09:00.570Z,22.55
2019-04-05T17:10:38.056Z,23.93
2019-04-05T17:12:13.611Z,23.15
2019-04-05T17:13:49.598Z,21.65
2019-04-05T17:15:25.653Z,22.24
2019-04-05T17:17:02.989Z,23.32
2019-04-05T17:18:38.580Z,24.60
2019-04-05T17:20:14.267Z,24.15
2019-04-05T17:21:49.862Z,22.52
2019-04-05T17:23:25.736Z,23.20
2019-04-05T17:25:01.613Z,22.37
2019-04-05T17:26:37.173Z,24.43
2019-04-05T17:28:12.703Z,24.05
2019-04-05T17:29:48.275Z,23.22
2019-04-05T17:31:24.081Z,27.00
2019-04-05T17:32:59.628Z,25.35
2019-04-05T17:34:36.735Z,24.57
2019-04-05T17:36:12.320Z,25.30
2019-04-05T17:37:47.891Z,25.30
2019-04-05T17:39:23.412Z,25.30
2019-04-05T17:40:58.948Z,24.90
2019-04-05T17:42:34.917Z,24.32
2019-04-05T17:44:10.758Z,25.80
2019-04-05T17:45:47.911Z,25.75
2019-04-05T17:47:23.477Z,25.97
2019-04-05T17:48:59.072Z,28.35
2019-04-05T17:50:35.355Z,26.45
2019-04-05T17:52:10.942Z,26.73
2019-04-05T17:53:46.445Z,26.20
2019-04-05T17:55:22.019Z,24.55
2019-04-05T17:56:58.015Z,26.87
2019-04-05T17:58:34.374Z,26.62
2019-04-05T18:00:11.940Z,29.52
2019-04-05T18:01:47.753Z,28.42
2019-04-05T18:03:23.313Z,28.73
2019-04-05T18:04:58.848Z,26.68
2019-04-05T18:06:34.387Z,27.05
2019-04-05T18:08:14.156Z,25.23
2019-04-05T18:09:51.271Z,26.15
2019-04-05T18:11:28.686Z,26.35
2019-04-05T18:13:07.169Z,25.27
2019-04-05T18:14:42.679Z,27.33
2019-04-05T18:16:18.211Z,27.20
2019-04-05T18:17:53.753Z,26.42
2019-04-05T18:19:29.696Z,25.97
2019-04-05T18:21:05.645Z,26.45
2019-04-05T18:22:41.187Z,25.62
2019-04-05T18:24:16.717Z,26.02
2019-04-05T18:25:52.595Z,24.65
2019-04-05T18:27:29.025Z,26.22
2019-04-05T18:29:04.549Z,25.20
2019-04-05T18:30:40.095Z,24.20
2019-04-05T18:32:15.616Z,24.67
2019-04-05T18:33:51.403Z,25.85
2019-04-05T18:35:26.955Z,26.30
2019-04-05T18:37:03.095Z,25.05
2019-04-05T18:38:38.914Z,26.53
2019-04-05T18:40:14.600Z,25.62
2019-04-05T18:41:50.140Z,25.62
2019-04-05T18:43:25.676Z,25.27
2019-04-05T18:45:01.238Z,26.33
2019-04-05T18:46:37.337Z,26.45
2019-04-05T18:48:12.901Z,27.30
2019-04-05T18:49:48.451Z,28.02
2019-04-05T18:51:26.797Z,27.60
2019-04-05T18:53:02.597Z,25.77
2019-04-05T18:54:39.663Z,25.30
2019-04-05T18:56:15.474Z,25.65
2019-04-05T18:57:51.043Z,26.27
2019-04-05T18:59:26.613Z,24.07
2019-04-05T19:01:02.407Z,25.57
2019-04-05T19:02:37.947Z,26.20
2019-04-05T19:04:13.762Z,27.98
2019-04-05T19:05:50.143Z,25.87
2019-04-05T19:07:25.746Z,26.67
2019-04-05T19:09:01.533Z,26.00
2019-04-05T19:10:39.110Z,25.80
2019-04-05T19:12:15.710Z,25.57
2019-04-05T19:14:00.969Z,24.97
2019-04-05T19:15:29.964Z,26.43
2019-04-05T19:17:05.855Z,27.13
2019-04-05T19:18:41.373Z,26.03
2019-04-05T19:20:17.036Z,25.50
2019-04-05T19:21:52.562Z,26.20
2019-04-05T19:23:28.480Z,26.30
2019-04-05T19:25:07.292Z,26.40
2019-04-05T19:26:42.845Z,27.07
2019-04-05T19:28:20.095Z,28.60
2019-04-05T19:29:55.652Z,27.07
2019-04-05T19:49:25.325Z,29.40
2019-04-05T19:51:00.888Z,27.60
2019-04-05T19:52:36.416Z,26.63
2019-04-05T19:54:11.937Z,27.90
2019-04-05T19:55:47.582Z,27.32
2019-04-05T19:57:23.160Z,27.87
2019-04-05T19:58:58.703Z,28.27
2019-04-05T20:00:35.340Z,27.63
2019-04-05T20:02:10.918Z,28.33
2019-04-05T20:03:46.449Z,28.47
2019-04-05T20:05:22.296Z,27.53
2019-04-05T20:06:58.648Z,28.10
2019-04-05T20:08:34.624Z,28.77
2019-04-05T20:10:10.760Z,28.77
2019-04-05T20:11:46.689Z,29.00
2019-04-05T20:13:22.557Z,28.65
2019-04-05T20:14:58.099Z,28.97
2019-04-05T20:16:34.713Z,26.84
2019-04-05T20:18:10.258Z,28.87
2019-04-05T20:19:46.168Z,29.37
2019-04-05T20:21:21.970Z,28.15
2019-04-05T20:22:57.537Z,28.30
2019-04-05T20:24:33.086Z,28.10
2019-04-05T20:26:08.637Z,28.13
2019-04-05T20:27:44.442Z,28.85
2019-04-05T20:29:21.713Z,28.02
2019-04-05T20:30:57.468Z,29.93
2019-04-05T20:32:33.025Z,28.47
2019-04-05T20:34:08.550Z,28.23
2019-04-05T20:35:44.086Z,29.53
2019-04-05T20:37:19.614Z,27.77
2019-04-05T20:38:55.155Z,29.83
2019-04-05T20:40:30.694Z,27.90
2019-04-05T20:42:06.399Z,29.37
2019-04-05T20:43:41.924Z,29.00
2019-04-05T20:45:17.481Z,27.98
2019-04-05T20:46:53.115Z,28.57
2019-04-05T20:48:28.634Z,27.73
2019-04-05T20:50:06.165Z,29.27
2019-04-05T20:51:41.720Z,28.60
2019-04-05T20:53:17.247Z,28.17
2019-04-05T20:54:52.824Z,29.72
2019-04-05T20:56:28.380Z,26.50